Ana Sayfa
METAR-TAF:

METAR-TAF

Havaalanları :

Mount Washington Regional Airport

Whitefield, New Hampshire, Amerika Birleşik Devletleri

Enlem: 44-21-58N, Boylam: 071-33-09W, yükseklik: 327 m

Güncel hava durumu gözlemi

Rapor saat 07:15 UTC de 29 dakika önce yapıldı.
Rüzgar doğudan 3 kt
Sıcaklık 2°C
Nem 80%
Basınç 1016 hPa
Görüş mesafesi: 16.1 km
2800 ft yükseklikte çok bulutlu

METAR: KHIE 300715Z AUTO 10003KT 10SM OVC028 02/M01 A3000 RMK AO2 RAE12 P0000 T00221006

Saat: 03:44 (07:44 UTC)

Tahmin

Rapor saat 05:20 UTC de 2 saat ve 24 dakika önce yapıldı.
Ayın 30'si saat 06 UTC'den ayın 31'si saat 06 UTC'ye kadar geçerli Tahmin
Rüzgar değişken yönden 4 kt
Görüş mesafesi: 10 km
5000 ft yükseklikte çok bulutlu
Ayın 30'si saat 1700 UTC'den
Rüzgar doğu/güneydoğudan 5 kt
Görüş mesafesi: 6.4 km
2500 ft yükseklikte çok bulutlu
hafif kar sağanakları

TAF: KHIE 300520Z 3006/3106 VRB04KT P6SM OVC050 FM301700 12005KT 4SM -SHSN OVC025

4.000'den fazla havaalanı için hava durumu gözlemleri ve tahminleri (METAR ve TAF raporları).

Kullanılabilir istasyonlar harita üzerinde sarı ve kırmızı noktalarla gösterilir.

İstasyonun adını görmek için fareyi noktanın üzerinde gezdirin.

Sonrasında hava gözlem ve tahminlerini görmek için tıklayın.

Haritayı değiştirmek için: yaklaştırmak için siyah artı işaretli yeşil düğmeye ve uzaklaştırmak için de eksi işaretli düğmeye hızla tıklayın; bitişik haritalar için yeşil okları kullanın.


METAR-TAF: